Time;durP1;ratioP1;P1;durP2;ratioP2;P2;SDS_P1;SDS_P2;PMS_P1;PMS_P2;Temp;Humidity;BMP_temperature;BMP_pressure;BME280_temperature;BME280_humidity;BME280_pressure;Samples;Min_cycle;Max_cycle;Signal;HPM_P1;HPM_P2
2023/11/16 00:00:58;;;;;;;4.20;2.80;;;8.80;99.90;;;;;;5066106;28;20204;-65
2023/11/16 00:03:24;;;;;;;3.28;2.97;;;8.80;99.90;;;;;;5062190;28;20241;-65
2023/11/16 00:05:51;;;;;;;6.05;3.10;;;8.70;99.90;;;;;;5063423;28;20562;-66
2023/11/16 00:08:18;;;;;;;6.40;4.28;;;8.70;99.90;;;;;;5063531;28;20313;-65
2023/11/16 00:10:45;;;;;;;3.85;2.55;;;8.60;99.90;;;;;;5063380;28;20698;-65
2023/11/16 00:13:12;;;;;;;4.20;2.63;;;8.60;99.90;;;;;;5061892;28;20206;-66
2023/11/16 00:15:39;;;;;;;2.95;2.75;;;8.50;99.90;;;;;;5060028;28;20253;-65
2023/11/16 00:18:09;;;;;;;4.05;2.45;;;8.50;99.90;;;;;;5062389;28;20305;-65
2023/11/16 00:20:36;;;;;;;5.07;2.75;;;8.50;99.90;;;;;;5063542;28;20209;-66
2023/11/16 00:23:04;;;;;;;5.55;5.05;;;8.50;99.90;;;;;;5061971;28;20211;-65
2023/11/16 00:25:31;;;;;;;6.65;5.93;;;8.40;99.90;;;;;;5064660;28;20205;-65
2023/11/16 00:27:59;;;;;;;9.32;5.43;;;8.40;99.90;;;;;;5064458;28;20221;-65
2023/11/16 00:30:26;;;;;;;6.43;5.82;;;8.40;99.90;;;;;;5061970;28;20209;-65
2023/11/16 00:32:53;;;;;;;6.35;4.28;;;8.40;99.90;;;;;;5070206;28;20572;-65
2023/11/16 00:35:21;;;;;;;7.47;5.15;;;8.40;99.90;;;;;;5069712;28;20707;-65
2023/11/16 00:37:50;;;;;;;5.05;4.20;;;8.40;99.90;;;;;;5069795;28;20225;-65
2023/11/16 00:40:18;;;;;;;3.75;3.45;;;8.40;99.90;;;;;;5070083;28;20284;-65
2023/11/16 00:42:44;;;;;;;4.18;3.80;;;8.30;99.90;;;;;;5070185;28;20206;-65
2023/11/16 00:45:11;;;;;;;6.65;3.80;;;8.30;99.90;;;;;;5069998;28;20296;-65
2023/11/16 00:47:39;;;;;;;4.80;2.55;;;8.30;99.90;;;;;;5069834;28;20309;-65
2023/11/16 00:50:07;;;;;;;3.10;2.80;;;8.30;99.90;;;;;;5070475;28;20225;-65
2023/11/16 00:52:35;;;;;;;3.20;2.50;;;8.30;99.90;;;;;;5070836;28;20206;-65
2023/11/16 00:55:04;;;;;;;4.28;2.25;;;8.20;99.90;;;;;;5068393;28;20288;-65
2023/11/16 00:57:31;;;;;;;3.03;2.00;;;8.20;99.90;;;;;;5070067;28;20308;-66
2023/11/16 00:59:58;;;;;;;3.00;2.50;;;8.10;99.90;;;;;;5070263;28;20201;-65
2023/11/16 01:02:26;;;;;;;2.72;2.45;;;8.10;99.90;;;;;;5070019;28;20301;-65
2023/11/16 01:04:52;;;;;;;1.80;1.70;;;8.00;99.90;;;;;;5061053;28;20260;-65
2023/11/16 01:07:21;;;;;;;2.40;1.92;;;8.00;99.90;;;;;;5059176;28;20233;-66
2023/11/16 01:09:49;;;;;;;3.63;2.90;;;7.90;99.90;;;;;;5047545;28;20210;-65
2023/11/16 01:12:16;;;;;;;3.80;2.35;;;7.80;99.90;;;;;;5056291;28;20198;-66
2023/11/16 01:14:44;;;;;;;5.13;2.10;;;7.80;99.90;;;;;;5071975;28;20264;-66
2023/11/16 01:17:18;;;;;;;4.15;2.03;;;7.70;99.90;;;;;;5073399;28;20222;-66
2023/11/16 01:19:46;;;;;;;1.50;1.40;;;7.70;99.90;;;;;;5058016;28;20220;-66
2023/11/16 01:22:15;;;;;;;2.95;1.70;;;7.60;99.90;;;;;;5053748;28;20704;-65
2023/11/16 01:24:45;;;;;;;3.53;2.13;;;7.60;99.90;;;;;;5053983;28;20288;-65
2023/11/16 01:27:18;;;;;;;6.15;3.13;;;7.50;99.90;;;;;;5073998;22;20643;-62
2023/11/16 01:29:45;;;;;;;3.80;2.25;;;7.50;99.90;;;;;;5050233;28;20289;-62
2023/11/16 01:32:12;;;;;;;1.95;1.70;;;7.50;99.90;;;;;;5053982;28;20301;-64
2023/11/16 01:34:42;;;;;;;2.38;2.20;;;7.50;99.90;;;;;;5051557;28;20202;-64
2023/11/16 01:37:10;;;;;;;2.95;1.92;;;7.40;99.90;;;;;;5051829;28;20322;-64
2023/11/16 01:39:38;;;;;;;3.95;1.80;;;7.40;99.90;;;;;;5052504;28;20253;-64
2023/11/16 01:42:06;;;;;;;6.68;1.90;;;7.30;99.90;;;;;;5052635;28;20221;-64
2023/11/16 01:44:34;;;;;;;2.33;1.63;;;7.30;99.90;;;;;;5049575;28;20218;-64
2023/11/16 01:47:02;;;;;;;2.63;1.60;;;7.30;99.90;;;;;;5040425;28;20211;-64
2023/11/16 01:49:30;;;;;;;3.35;1.50;;;7.20;99.90;;;;;;5013653;28;20270;-64
2023/11/16 01:51:57;;;;;;;3.40;1.70;;;7.20;99.90;;;;;;5014722;28;20315;-64
2023/11/16 01:54:25;;;;;;;1.60;1.50;;;7.20;99.90;;;;;;5014351;28;20670;-64
2023/11/16 01:56:53;;;;;;;1.50;1.40;;;7.10;99.90;;;;;;5014027;28;20232;-64
2023/11/16 01:59:20;;;;;;;2.22;2.03;;;7.10;99.90;;;;;;5014365;28;20245;-64
2023/11/16 02:01:49;;;;;;;3.00;1.92;;;7.10;99.90;;;;;;5014277;28;20232;-64
2023/11/16 02:04:15;;;;;;;3.65;2.00;;;7.10;99.90;;;;;;5014146;28;20730;-64
2023/11/16 02:06:43;;;;;;;2.15;2.05;;;7.00;99.90;;;;;;5013813;28;20231;-64
2023/11/16 02:09:11;;;;;;;2.85;1.40;;;7.00;99.90;;;;;;5014263;28;20204;-64
2023/11/16 02:11:38;;;;;;;4.88;1.75;;;7.00;99.90;;;;;;5014041;28;20220;-64
2023/11/16 02:14:05;;;;;;;3.20;1.60;;;6.90;99.90;;;;;;5014007;28;20298;-64
2023/11/16 02:16:31;;;;;;;3.22;3.08;;;6.90;99.90;;;;;;5013414;28;20230;-64
2023/11/16 02:19:05;;;;;;;1.63;1.52;;;6.90;99.90;;;;;;5018855;28;20351;-64
2023/11/16 02:21:38;;;;;;;2.38;2.28;;;6.90;99.90;;;;;;5034547;28;20287;-64
2023/11/16 02:24:09;;;;;;;1.55;1.45;;;6.80;99.90;;;;;;5033394;28;20207;-64
2023/11/16 02:26:36;;;;;;;3.25;1.70;;;6.80;99.90;;;;;;5033077;28;20234;-64
2023/11/16 02:29:04;;;;;;;3.05;1.70;;;6.70;99.90;;;;;;5033313;28;20685;-64
2023/11/16 02:31:31;;;;;;;3.40;1.35;;;6.70;99.90;;;;;;5033589;28;20298;-64
2023/11/16 02:33:57;;;;;;;1.92;1.70;;;6.60;99.90;;;;;;5033464;28;20309;-64
2023/11/16 02:36:24;;;;;;;1.95;1.55;;;6.60;99.90;;;;;;5032938;28;20223;-64
2023/11/16 02:38:51;;;;;;;2.35;1.52;;;6.50;99.90;;;;;;5033386;28;20215;-64
2023/11/16 02:41:19;;;;;;;2.50;1.30;;;6.40;99.90;;;;;;5033323;28;20207;-64
2023/11/16 02:43:48;;;;;;;2.83;1.40;;;6.40;99.90;;;;;;5033613;28;20206;-64
2023/11/16 02:46:17;;;;;;;1.58;1.45;;;6.30;99.90;;;;;;5032990;28;20631;-64
2023/11/16 02:48:44;;;;;;;1.42;1.33;;;6.20;99.90;;;;;;5033196;28;20214;-64
2023/11/16 02:51:11;;;;;;;2.25;1.90;;;6.20;99.90;;;;;;5033025;28;20680;-64
2023/11/16 02:53:38;;;;;;;1.83;1.73;;;6.10;99.90;;;;;;5033159;28;20215;-64
2023/11/16 02:56:05;;;;;;;1.92;1.80;;;6.00;99.90;;;;;;5032685;28;20223;-64
2023/11/16 02:58:34;;;;;;;1.20;1.10;;;6.00;99.90;;;;;;5032783;28;20265;-64
2023/11/16 03:01:02;;;;;;;3.85;2.00;;;5.90;99.90;;;;;;5033095;28;20207;-64
2023/11/16 03:03:29;;;;;;;1.75;1.65;;;5.90;99.90;;;;;;5032798;28;20261;-64
2023/11/16 03:05:56;;;;;;;1.55;1.45;;;5.80;99.90;;;;;;5032577;28;20211;-64
2023/11/16 03:08:22;;;;;;;1.98;1.83;;;5.70;99.90;;;;;;5032582;28;20226;-64
2023/11/16 03:10:49;;;;;;;1.70;1.60;;;5.70;99.90;;;;;;5033033;28;20237;-64
2023/11/16 03:13:16;;;;;;;1.90;1.80;;;5.70;99.90;;;;;;5032632;28;20207;-64
2023/11/16 03:15:44;;;;;;;5.82;2.17;;;5.70;99.90;;;;;;5032007;28;20325;-64
2023/11/16 03:18:15;;;;;;;4.55;2.50;;;5.60;99.90;;;;;;5032416;28;20241;-64
2023/11/16 03:20:43;;;;;;;2.45;2.25;;;5.60;99.90;;;;;;5037631;28;20203;-64
2023/11/16 03:23:10;;;;;;;1.75;1.63;;;5.60;99.90;;;;;;5043808;28;20205;-64
2023/11/16 03:25:37;;;;;;;3.13;2.03;;;5.50;99.90;;;;;;5052227;28;20206;-64
2023/11/16 03:28:04;;;;;;;6.18;2.50;;;5.50;99.90;;;;;;5051546;28;20244;-64
2023/11/16 03:30:33;;;;;;;2.67;2.47;;;5.50;99.90;;;;;;5051917;28;20681;-64
2023/11/16 03:33:01;;;;;;;2.70;2.50;;;5.50;99.90;;;;;;5052069;28;20300;-64
2023/11/16 03:35:28;;;;;;;4.88;2.30;;;5.60;99.90;;;;;;5051616;28;20221;-64
2023/11/16 03:37:55;;;;;;;2.50;2.35;;;5.60;99.90;;;;;;5051099;28;20865;-64
2023/11/16 03:40:22;;;;;;;2.35;2.15;;;5.60;99.90;;;;;;5051931;28;20207;-64
2023/11/16 03:42:48;;;;;;;4.85;2.63;;;5.60;99.90;;;;;;5051866;28;20309;-64
2023/11/16 03:45:15;;;;;;;2.60;2.20;;;5.70;99.90;;;;;;5051704;28;20748;-64
2023/11/16 03:47:42;;;;;;;3.83;3.33;;;5.70;99.90;;;;;;5051686;28;20219;-64
2023/11/16 03:50:11;;;;;;;2.40;2.20;;;5.70;99.90;;;;;;5051873;28;20328;-64
2023/11/16 03:52:37;;;;;;;2.60;2.40;;;5.70;99.90;;;;;;5052096;28;20238;-64
2023/11/16 03:55:05;;;;;;;4.28;1.85;;;5.80;99.90;;;;;;5051927;28;20587;-64
2023/11/16 03:57:32;;;;;;;2.45;2.25;;;5.80;99.90;;;;;;5051338;28;20313;-64
2023/11/16 03:59:59;;;;;;;5.10;2.45;;;5.90;99.90;;;;;;5051672;28;20211;-64
2023/11/16 04:02:26;;;;;;;10.02;3.75;;;5.90;99.90;;;;;;5051592;28;20586;-64
2023/11/16 04:04:52;;;;;;;2.50;2.30;;;5.90;99.90;;;;;;5051564;28;20217;-64
2023/11/16 04:07:21;;;;;;;4.18;2.67;;;5.90;99.90;;;;;;5051126;28;20233;-64
2023/11/16 04:09:47;;;;;;;2.13;2.00;;;6.00;99.90;;;;;;5051842;28;20213;-64
2023/11/16 04:12:15;;;;;;;5.90;3.80;;;6.00;99.90;;;;;;5051753;28;20594;-64
2023/11/16 04:14:43;;;;;;;2.60;2.40;;;6.00;99.90;;;;;;5051492;28;20210;-64
2023/11/16 04:17:13;;;;;;;3.58;2.95;;;6.10;99.90;;;;;;5050957;28;20231;-64
2023/11/16 04:19:40;;;;;;;2.83;2.58;;;6.10;99.90;;;;;;5051653;28;20304;-64
2023/11/16 04:22:07;;;;;;;2.55;2.25;;;6.10;99.90;;;;;;5050433;28;20748;-64
2023/11/16 04:24:41;;;;;;;3.22;2.40;;;6.20;99.90;;;;;;5051591;28;20206;-64
2023/11/16 04:27:08;;;;;;;3.25;3.05;;;6.20;99.90;;;;;;5050829;28;20260;-64
2023/11/16 04:29:35;;;;;;;3.78;2.40;;;6.20;99.90;;;;;;5051337;28;20293;-64
2023/11/16 04:32:02;;;;;;;3.80;2.67;;;6.30;99.90;;;;;;5051156;28;20310;-64
2023/11/16 04:34:28;;;;;;;2.40;2.20;;;6.30;99.90;;;;;;5051239;28;20210;-64
2023/11/16 04:36:56;;;;;;;4.05;1.90;;;6.30;99.90;;;;;;5051025;28;20236;-64
2023/11/16 04:39:23;;;;;;;2.60;2.25;;;6.40;99.90;;;;;;5051267;28;20680;-64
2023/11/16 04:41:51;;;;;;;2.15;1.77;;;6.40;99.90;;;;;;5051272;28;20207;-64
2023/11/16 04:44:18;;;;;;;2.45;2.20;;;6.40;99.90;;;;;;5051255;28;20834;-64
2023/11/16 04:46:48;;;;;;;2.05;1.95;;;6.50;99.90;;;;;;5050922;28;20230;-64
2023/11/16 04:49:15;;;;;;;5.53;2.53;;;6.50;99.90;;;;;;5055585;28;20460;-64
2023/11/16 04:51:44;;;;;;;2.42;2.22;;;6.50;99.90;;;;;;5055466;28;20206;-64
2023/11/16 04:54:11;;;;;;;2.97;1.98;;;6.50;99.90;;;;;;5055355;28;20245;-64
2023/11/16 04:56:38;;;;;;;2.97;1.80;;;6.50;99.90;;;;;;5054686;28;20621;-64
2023/11/16 04:59:08;;;;;;;2.78;1.98;;;6.50;99.90;;;;;;5055006;28;20308;-64
2023/11/16 05:01:35;;;;;;;5.20;2.45;;;6.50;99.90;;;;;;5055282;28;20668;-64
2023/11/16 05:04:02;;;;;;;3.90;2.60;;;6.50;99.90;;;;;;5055078;28;20218;-64
2023/11/16 05:06:29;;;;;;;2.30;2.10;;;6.50;99.90;;;;;;5054807;28;20206;-64
2023/11/16 05:08:57;;;;;;;3.35;2.40;;;6.50;99.90;;;;;;5055032;28;20680;-64
2023/11/16 05:11:24;;;;;;;3.38;3.08;;;6.50;99.90;;;;;;5054956;28;20217;-64
2023/11/16 05:13:51;;;;;;;3.00;2.60;;;6.60;99.90;;;;;;5055020;28;20214;-64
2023/11/16 05:16:20;;;;;;;2.60;2.00;;;6.60;99.90;;;;;;5054567;28;20702;-64
2023/11/16 05:18:47;;;;;;;2.20;2.00;;;6.60;99.90;;;;;;5054996;28;20230;-64
2023/11/16 05:21:14;;;;;;;3.67;2.70;;;6.60;99.90;;;;;;5055056;28;20205;-64
2023/11/16 05:23:42;;;;;;;3.85;2.83;;;6.60;99.90;;;;;;5054685;28;20252;-64
2023/11/16 05:26:09;;;;;;;4.10;3.17;;;6.60;99.90;;;;;;5054317;28;20748;-64
2023/11/16 05:28:36;;;;;;;5.30;2.58;;;6.60;99.90;;;;;;5054508;28;20321;-64
2023/11/16 05:31:04;;;;;;;2.80;2.60;;;6.70;99.90;;;;;;5054858;28;20210;-64
2023/11/16 05:33:33;;;;;;;2.90;2.70;;;6.70;99.90;;;;;;5054829;28;20207;-64
2023/11/16 05:36:00;;;;;;;4.15;3.75;;;6.70;99.90;;;;;;5054195;28;20217;-64
2023/11/16 05:38:27;;;;;;;5.18;3.60;;;6.80;99.90;;;;;;5054327;28;20233;-64
2023/11/16 05:40:54;;;;;;;8.05;6.60;;;6.80;99.90;;;;;;5053982;28;20733;-64
2023/11/16 05:43:21;;;;;;;6.07;5.43;;;6.90;99.90;;;;;;5054561;28;20307;-64
2023/11/16 05:45:48;;;;;;;7.90;4.22;;;6.90;99.90;;;;;;5054315;28;20213;-64
2023/11/16 05:48:15;;;;;;;6.10;5.20;;;7.00;99.90;;;;;;5054174;28;20250;-64
2023/11/16 05:50:44;;;;;;;5.90;4.53;;;7.00;99.90;;;;;;5054108;28;20199;-64
2023/11/16 05:53:11;;;;;;;6.20;4.35;;;7.10;99.90;;;;;;5042520;28;20232;-64
2023/11/16 05:55:38;;;;;;;7.25;4.30;;;7.10;99.90;;;;;;5045710;28;20237;-64
2023/11/16 05:58:06;;;;;;;5.18;3.55;;;7.20;99.90;;;;;;5045502;28;20314;-64
2023/11/16 06:00:36;;;;;;;10.25;4.22;;;7.20;99.90;;;;;;5037671;28;20576;-64
2023/11/16 06:03:04;;;;;;;8.40;4.72;;;7.30;99.90;;;;;;5054064;28;20214;-64
2023/11/16 06:05:31;;;;;;;7.82;3.75;;;7.30;99.90;;;;;;5053894;28;20221;-64
2023/11/16 06:08:00;;;;;;;5.30;3.30;;;7.40;99.90;;;;;;5053404;28;20661;-64
2023/11/16 06:10:26;;;;;;;3.92;3.60;;;7.40;99.90;;;;;;5053896;28;20217;-64
2023/11/16 06:12:57;;;;;;;7.85;3.55;;;7.40;99.90;;;;;;5053979;28;20216;-64
2023/11/16 06:15:25;;;;;;;5.43;4.95;;;7.40;99.90;;;;;;5053644;28;20208;-64
2023/11/16 06:17:54;;;;;;;9.50;5.97;;;7.40;99.90;;;;;;5053493;28;20230;-64
2023/11/16 06:20:22;;;;;;;7.57;4.40;;;7.50;99.90;;;;;;5053516;28;20206;-64
2023/11/16 06:22:50;;;;;;;8.25;5.38;;;7.50;99.90;;;;;;5053752;28;20685;-64
2023/11/16 06:25:18;;;;;;;6.90;5.47;;;7.50;99.90;;;;;;5053711;28;20298;-64
2023/11/16 06:27:46;;;;;;;7.40;4.60;;;7.50;99.90;;;;;;5053075;28;20261;-64
2023/11/16 06:30:14;;;;;;;4.95;4.35;;;7.50;99.90;;;;;;5053428;28;20214;-64
2023/11/16 06:32:42;;;;;;;5.38;4.80;;;7.50;99.90;;;;;;5053280;28;20214;-64
2023/11/16 06:35:10;;;;;;;12.82;6.70;;;7.50;99.90;;;;;;5053135;28;20202;-64
2023/11/16 06:37:37;;;;;;;8.38;4.70;;;7.60;99.90;;;;;;5053068;28;20230;-64
2023/11/16 06:40:05;;;;;;;7.22;4.10;;;7.60;99.90;;;;;;5053459;28;20237;-64
2023/11/16 06:42:36;;;;;;;3.97;3.55;;;7.60;99.90;;;;;;5053363;28;20233;-64
2023/11/16 06:45:04;;;;;;;4.50;3.85;;;7.60;99.90;;;;;;5046703;28;20230;-64
2023/11/16 06:47:32;;;;;;;3.70;3.40;;;7.60;99.90;;;;;;5044280;28;20218;-64
2023/11/16 06:49:59;;;;;;;3.58;3.25;;;7.60;99.90;;;;;;5053067;28;20237;-64
2023/11/16 06:52:26;;;;;;;3.30;2.63;;;7.60;99.90;;;;;;5052865;28;20810;-64
2023/11/16 06:54:53;;;;;;;7.47;3.20;;;7.60;99.90;;;;;;5053177;28;20210;-64
2023/11/16 06:57:22;;;;;;;4.72;2.47;;;7.60;99.90;;;;;;5052655;28;20248;-64
2023/11/16 06:59:53;;;;;;;5.57;3.40;;;7.60;99.90;;;;;;5052816;28;20241;-64
2023/11/16 07:02:21;;;;;;;4.07;3.72;;;7.60;99.90;;;;;;5053006;28;20229;-64
2023/11/16 07:04:48;;;;;;;3.80;3.50;;;7.60;99.90;;;;;;5053046;28;20690;-64
2023/11/16 07:07:15;;;;;;;5.57;3.40;;;7.60;99.90;;;;;;5052435;28;20692;-64
2023/11/16 07:09:45;;;;;;;9.35;4.13;;;7.60;99.90;;;;;;5052529;28;20297;-64
2023/11/16 07:12:12;;;;;;;4.45;3.33;;;7.60;99.90;;;;;;5051656;28;20684;-64
2023/11/16 07:14:39;;;;;;;7.53;5.00;;;7.60;99.90;;;;;;5052410;28;20264;-64
2023/11/16 07:17:10;;;;;;;6.47;4.93;;;7.60;99.90;;;;;;5052030;28;20816;-64
2023/11/16 07:19:38;;;;;;;7.03;4.45;;;7.60;99.90;;;;;;5052732;28;20643;-64
2023/11/16 07:22:05;;;;;;;9.77;7.00;;;7.70;99.90;;;;;;5052398;28;20221;-64
2023/11/16 07:24:32;;;;;;;5.70;5.00;;;7.70;99.90;;;;;;5052301;28;20293;-64
2023/11/16 07:27:02;;;;;;;7.80;5.50;;;7.70;99.90;;;;;;5051843;28;20245;-64
2023/11/16 07:29:29;;;;;;;4.57;4.18;;;7.80;99.90;;;;;;5092122;22;20705;-65
2023/11/16 07:31:56;;;;;;;8.63;4.75;;;7.80;99.90;;;;;;5071970;28;20296;-66
2023/11/16 07:34:24;;;;;;;8.15;5.60;;;7.90;99.90;;;;;;5071982;28;20206;-65
2023/11/16 07:36:52;;;;;;;6.22;4.65;;;7.90;99.90;;;;;;5071761;28;20210;-65
2023/11/16 07:39:19;;;;;;;7.40;4.90;;;8.00;99.90;;;;;;5071750;28;20230;-65
2023/11/16 07:41:46;;;;;;;7.03;6.43;;;8.00;99.90;;;;;;5072199;28;20214;-65
2023/11/16 07:44:14;;;;;;;7.22;6.10;;;8.00;99.90;;;;;;5071806;28;20206;-65
2023/11/16 07:46:41;;;;;;;7.10;4.63;;;8.10;99.90;;;;;;5071671;28;20205;-65
2023/11/16 07:49:09;;;;;;;7.20;5.25;;;8.20;99.90;;;;;;5071806;28;20332;-65
2023/11/16 07:51:39;;;;;;;5.05;4.55;;;8.30;99.90;;;;;;5071754;28;20660;-65
2023/11/16 07:54:07;;;;;;;7.35;5.20;;;8.30;99.90;;;;;;5071652;28;20209;-65
2023/11/16 07:56:34;;;;;;;5.45;5.05;;;8.40;99.90;;;;;;5071273;28;20205;-66
2023/11/16 07:59:02;;;;;;;7.30;6.05;;;8.40;99.90;;;;;;5071415;28;20233;-65
2023/11/16 08:01:39;;;;;;;5.67;5.10;;;8.50;99.90;;;;;;5071726;28;20213;-65
2023/11/16 08:04:05;;;;;;;9.68;6.53;;;8.60;99.90;;;;;;5071483;28;20448;-65
2023/11/16 08:06:35;;;;;;;6.75;6.00;;;8.70;99.90;;;;;;5071248;28;20293;-65
2023/11/16 08:09:05;;;;;;;6.23;5.67;;;8.70;99.90;;;;;;5071392;28;20283;-65
2023/11/16 08:11:36;;;;;;;8.48;5.75;;;8.80;99.90;;;;;;5071702;28;20486;-65
2023/11/16 08:14:06;;;;;;;5.53;4.63;;;8.80;99.90;;;;;;5070395;28;20206;-65
2023/11/16 08:16:34;;;;;;;5.35;4.82;;;8.80;99.90;;;;;;5070197;28;20578;-66
2023/11/16 08:19:01;;;;;;;7.88;4.60;;;8.90;99.90;;;;;;5069671;28;20762;-65
2023/11/16 08:21:27;;;;;;;6.18;5.53;;;8.90;99.90;;;;;;5070855;28;20300;-66
2023/11/16 08:23:55;;;;;;;5.33;4.93;;;8.90;99.90;;;;;;5070334;28;20241;-65
2023/11/16 08:26:25;;;;;;;6.70;5.57;;;9.00;99.90;;;;;;5070434;28;20471;-66
2023/11/16 08:28:53;;;;;;;8.75;6.70;;;9.00;99.90;;;;;;5069983;28;20579;-65
2023/11/16 08:31:20;;;;;;;6.45;5.22;;;9.00;99.90;;;;;;5071005;28;20297;-65
2023/11/16 08:33:48;;;;;;;8.13;5.72;;;9.00;99.90;;;;;;5069582;28;20213;-65
2023/11/16 08:36:17;;;;;;;5.90;5.30;;;9.10;99.90;;;;;;5068783;28;20218;-66
2023/11/16 08:38:45;;;;;;;6.37;5.77;;;9.10;99.90;;;;;;5068618;28;21086;-66
2023/11/16 08:41:15;;;;;;;17.20;9.90;;;9.10;99.90;;;;;;5070024;28;20443;-67
2023/11/16 08:43:44;;;;;;;11.07;8.30;;;9.20;99.90;;;;;;5068950;28;20456;-66
2023/11/16 08:46:11;;;;;;;13.73;7.93;;;9.20;99.90;;;;;;5069441;28;20462;-65
2023/11/16 08:48:43;;;;;;;5.25;4.75;;;9.30;99.90;;;;;;5069397;28;20460;-65
2023/11/16 08:51:15;;;;;;;8.40;5.55;;;9.30;99.90;;;;;;5069842;28;20210;-66
2023/11/16 08:53:43;;;;;;;6.90;6.40;;;9.30;99.90;;;;;;5069209;28;20245;-66
2023/11/16 08:56:11;;;;;;;6.30;4.87;;;9.30;99.90;;;;;;5066244;28;20450;-65
2023/11/16 08:58:47;;;;;;;8.77;5.40;;;9.30;99.90;;;;;;5069051;28;20488;-66
2023/11/16 09:01:17;;;;;;;6.60;3.80;;;9.30;99.90;;;;;;5067169;28;20448;-65
2023/11/16 09:03:49;;;;;;;5.33;4.37;;;9.40;99.90;;;;;;5069256;28;20523;-65
2023/11/16 09:06:18;;;;;;;5.40;4.80;;;9.40;99.90;;;;;;5069181;28;20509;-65
2023/11/16 09:08:45;;;;;;;6.30;5.63;;;9.50;99.90;;;;;;5068855;28;20464;-65
2023/11/16 09:11:16;;;;;;;5.73;4.80;;;9.50;99.90;;;;;;5069447;28;20896;-65
2023/11/16 09:13:44;;;;;;;12.30;8.40;;;9.50;99.90;;;;;;5068859;28;20560;-65
2023/11/16 09:16:11;;;;;;;6.13;5.60;;;9.50;99.90;;;;;;5067074;28;20483;-65
2023/11/16 09:18:41;;;;;;;6.20;5.20;;;9.50;99.90;;;;;;5068842;28;20556;-65
2023/11/16 09:21:09;;;;;;;7.10;4.83;;;9.50;99.90;;;;;;5068103;28;20506;-65
2023/11/16 09:23:36;;;;;;;7.70;5.70;;;9.60;99.90;;;;;;5061070;28;20451;-65
2023/11/16 09:26:04;;;;;;;5.33;4.83;;;9.70;99.90;;;;;;5067862;28;20984;-65
2023/11/16 09:28:35;;;;;;;4.80;3.47;;;9.80;99.90;;;;;;5068108;28;20480;-65
2023/11/16 09:31:02;;;;;;;5.15;3.70;;;9.80;99.90;;;;;;5069268;28;20475;-65
2023/11/16 09:33:29;;;;;;;4.00;3.70;;;9.90;99.90;;;;;;5069036;28;20205;-65
2023/11/16 09:35:57;;;;;;;7.70;4.53;;;10.00;99.90;;;;;;5072094;28;20959;-66
2023/11/16 09:38:23;;;;;;;5.47;4.07;;;10.00;99.90;;;;;;5072366;28;20493;-65
2023/11/16 09:40:50;;;;;;;6.40;4.07;;;10.00;99.90;;;;;;5071717;28;20493;-65
2023/11/16 09:43:17;;;;;;;6.07;3.80;;;10.00;99.90;;;;;;5071848;28;20527;-66
2023/11/16 09:45:48;;;;;;;6.83;2.80;;;10.10;99.90;;;;;;5072559;28;20964;-66
2023/11/16 09:48:17;;;;;;;5.50;3.20;;;10.10;99.90;;;;;;5072266;28;20517;-65
2023/11/16 09:50:45;;;;;;;5.17;3.00;;;10.10;99.90;;;;;;5072410;28;20513;-65
2023/11/16 09:53:16;;;;;;;5.47;3.67;;;10.10;99.90;;;;;;5072252;28;20436;-65
2023/11/16 09:55:46;;;;;;;4.53;3.17;;;10.20;99.90;;;;;;5072439;28;20447;-65
2023/11/16 09:58:17;;;;;;;4.47;3.33;;;10.20;99.90;;;;;;5072258;28;20476;-65
2023/11/16 10:00:48;;;;;;;3.40;3.10;;;10.20;99.90;;;;;;5072922;28;20450;-65
2023/11/16 10:03:21;;;;;;;6.10;3.13;;;10.20;99.90;;;;;;5072458;28;20440;-65
2023/11/16 10:05:53;;;;;;;5.77;4.27;;;10.10;99.90;;;;;;5072295;28;20990;-65
2023/11/16 10:08:23;;;;;;;3.63;2.73;;;10.10;99.90;;;;;;5072356;28;21037;-65
2023/11/16 10:10:54;;;;;;;4.47;3.33;;;10.10;99.90;;;;;;5072241;28;20551;-65
2023/11/16 10:13:22;;;;;;;8.00;3.97;;;10.10;99.90;;;;;;5072354;28;20950;-65
2023/11/16 10:15:51;;;;;;;7.20;3.03;;;10.00;99.90;;;;;;5071676;28;20824;-66
2023/11/16 10:18:18;;;;;;;5.90;3.73;;;10.00;99.90;;;;;;5071712;28;20471;-65
2023/11/16 10:20:45;;;;;;;3.13;2.73;;;10.00;99.90;;;;;;5072420;28;20479;-65
2023/11/16 10:23:13;;;;;;;4.90;3.50;;;10.10;99.90;;;;;;5072267;28;20519;-65
2023/11/16 10:25:42;;;;;;;4.97;3.50;;;10.10;99.90;;;;;;5072263;28;20933;-65
2023/11/16 10:28:16;;;;;;;3.53;3.10;;;10.20;99.90;;;;;;5071815;28;20505;-65
2023/11/16 10:30:46;;;;;;;4.17;3.93;;;10.20;99.90;;;;;;5071796;28;20454;-65
2023/11/16 10:33:16;;;;;;;4.30;3.90;;;10.20;99.90;;;;;;5072280;28;20529;-65
2023/11/16 10:35:47;;;;;;;3.27;2.90;;;10.30;99.90;;;;;;5072337;28;20452;-65
2023/11/16 10:38:15;;;;;;;3.50;2.87;;;10.30;99.90;;;;;;5071890;28;20475;-65
2023/11/16 10:40:44;;;;;;;4.77;2.80;;;10.40;99.90;;;;;;5072131;28;20440;-65
2023/11/16 10:43:12;;;;;;;8.10;2.90;;;10.40;99.90;;;;;;5071828;28;20447;-65
2023/11/16 10:45:42;;;;;;;5.20;2.67;;;10.60;99.90;;;;;;5071440;28;20523;-65
2023/11/16 10:48:13;;;;;;;4.73;2.07;;;10.70;99.90;;;;;;5071471;28;20464;-65
2023/11/16 10:50:41;;;;;;;3.53;3.23;;;10.90;99.90;;;;;;5064684;28;20444;-65
2023/11/16 10:53:13;;;;;;;4.27;2.70;;;11.00;99.90;;;;;;5071846;28;20539;-65
2023/11/16 10:55:42;;;;;;;4.07;2.33;;;11.10;99.90;;;;;;5071769;28;20447;-65
2023/11/16 10:58:11;;;;;;;3.73;2.80;;;11.20;99.90;;;;;;5071530;28;20550;-66
2023/11/16 11:00:41;;;;;;;3.70;2.63;;;11.20;99.90;;;;;;5071636;28;20578;-65
2023/11/16 11:03:10;;;;;;;3.97;3.23;;;11.20;99.90;;;;;;5071797;28;20466;-65
2023/11/16 11:05:41;;;;;;;4.63;2.70;;;11.30;99.90;;;;;;5071781;28;20464;-65
2023/11/16 11:08:10;;;;;;;5.73;3.60;;;11.30;99.90;;;;;;5071241;28;21010;-65
2023/11/16 11:10:38;;;;;;;5.13;3.57;;;11.30;99.90;;;;;;5071455;28;20436;-66
2023/11/16 11:13:06;;;;;;;9.80;4.00;;;11.30;99.90;;;;;;5071575;28;20505;-66
2023/11/16 11:15:36;;;;;;;7.07;3.27;;;11.30;99.90;;;;;;5071547;28;20938;-66
2023/11/16 11:18:04;;;;;;;3.53;3.10;;;11.30;99.90;;;;;;5071192;28;20866;-66
2023/11/16 11:20:36;;;;;;;3.60;3.20;;;11.30;99.90;;;;;;5071233;28;20942;-65
2023/11/16 11:23:08;;;;;;;9.90;3.23;;;11.20;99.90;;;;;;5071324;28;20448;-66
2023/11/16 11:25:36;;;;;;;5.70;3.20;;;11.10;99.90;;;;;;5055461;28;20443;-66
2023/11/16 11:28:03;;;;;;;4.30;3.03;;;11.10;99.90;;;;;;5070836;28;20499;-66
2023/11/16 11:30:32;;;;;;;3.77;2.73;;;11.10;99.90;;;;;;5070912;28;20854;-65
2023/11/16 11:33:05;;;;;;;8.60;3.60;;;11.00;99.90;;;;;;5070985;28;20843;-65
2023/11/16 11:35:35;;;;;;;5.77;3.33;;;11.00;99.90;;;;;;5069881;28;20448;-65
2023/11/16 11:38:03;;;;;;;4.63;3.93;;;11.00;99.90;;;;;;5070895;28;20464;-65
2023/11/16 11:40:30;;;;;;;6.50;3.70;;;10.90;99.90;;;;;;5070175;28;20488;-65
2023/11/16 11:42:58;;;;;;;6.20;3.73;;;10.90;99.90;;;;;;5070886;28;20448;-66
2023/11/16 11:45:29;;;;;;;5.33;3.40;;;10.80;99.90;;;;;;5070426;28;20444;-65
2023/11/16 11:47:56;;;;;;;7.00;3.63;;;10.80;99.90;;;;;;5070413;28;20460;-66
2023/11/16 11:50:27;;;;;;;7.73;3.50;;;10.70;99.90;;;;;;5070979;28;20440;-66
2023/11/16 11:52:55;;;;;;;5.10;3.90;;;10.70;99.90;;;;;;5071013;28;20440;-66
2023/11/16 11:55:25;;;;;;;4.67;3.00;;;10.70;99.90;;;;;;5069985;28;20535;-66
2023/11/16 11:57:52;;;;;;;4.07;3.20;;;10.70;99.90;;;;;;5069519;28;20455;-66
2023/11/16 12:00:22;;;;;;;3.87;3.50;;;10.60;99.90;;;;;;5070374;28;20480;-66
2023/11/16 12:02:50;;;;;;;2.70;2.50;;;10.60;99.90;;;;;;5070784;28;20444;-66
2023/11/16 12:05:17;;;;;;;2.87;2.63;;;10.60;99.90;;;;;;5069023;28;20467;-65
2023/11/16 12:07:58;;;;;;;6.27;2.97;;;10.50;99.90;;;;;;5062857;28;20486;-66
2023/11/16 12:10:25;;;;;;;3.37;2.63;;;10.50;99.90;;;;;;5068564;28;20897;-65
2023/11/16 12:12:52;;;;;;;6.03;3.00;;;10.50;99.90;;;;;;5069875;28;20471;-64
2023/11/16 12:15:19;;;;;;;5.80;3.40;;;10.50;99.90;;;;;;5070017;28;20519;-65
2023/11/16 12:17:46;;;;;;;3.93;3.00;;;10.40;99.90;;;;;;5069038;28;20455;-64
2023/11/16 12:20:15;;;;;;;5.43;2.87;;;10.40;99.90;;;;;;5069517;28;20480;-66
2023/11/16 12:22:41;;;;;;;3.10;2.63;;;10.40;99.90;;;;;;5070036;28;20536;-65
2023/11/16 12:25:12;;;;;;;3.03;2.40;;;10.40;99.90;;;;;;5069783;28;20443;-65
2023/11/16 12:27:41;;;;;;;5.83;2.50;;;10.40;99.90;;;;;;5069485;28;20843;-65
2023/11/16 12:30:17;;;;;;;3.57;2.13;;;10.30;99.90;;;;;;5069774;28;20445;-66
2023/11/16 12:32:44;;;;;;;3.33;2.80;;;10.30;99.90;;;;;;5069928;28;20865;-65
2023/11/16 12:35:14;;;;;;;3.43;2.63;;;10.30;99.90;;;;;;5069717;28;21078;-64
2023/11/16 12:37:42;;;;;;;3.20;2.77;;;10.30;99.90;;;;;;5069577;28;20499;-65
2023/11/16 12:40:17;;;;;;;3.17;2.87;;;10.30;99.90;;;;;;5069741;28;20849;-65
2023/11/16 12:42:44;;;;;;;4.83;2.40;;;10.30;99.90;;;;;;5069742;28;20447;-65
2023/11/16 12:45:11;;;;;;;6.80;3.53;;;10.30;99.90;;;;;;5069471;28;20468;-65
2023/11/16 12:47:38;;;;;;;4.60;3.80;;;10.30;99.90;;;;;;5069506;28;20466;-65
2023/11/16 12:50:06;;;;;;;4.23;3.90;;;10.30;99.90;;;;;;5068671;28;20440;-65
2023/11/16 12:52:34;;;;;;;5.80;4.00;;;10.30;99.90;;;;;;5069273;28;20962;-65
2023/11/16 12:55:04;;;;;;;6.90;3.60;;;10.20;99.90;;;;;;5069902;28;20436;-65
2023/11/16 12:57:32;;;;;;;8.70;4.30;;;10.20;99.90;;;;;;5065887;28;20460;-65